Time;durP1;ratioP1;P1;durP2;ratioP2;P2;SDS_P1;SDS_P2;PMS_P1;PMS_P2;Temp;Humidity;BMP_temperature;BMP_pressure;BME280_temperature;BME280_humidity;BME280_pressure;Samples;Min_cycle;Max_cycle;Signal;HPM_P1;HPM_P2
2023/03/17 00:00:44;;;;;;;2.20;1.70;;;7.90;99.90;;;;;;5074377;28;20202;-46
2023/03/17 00:03:31;;;;;;;3.13;2.10;;;7.80;99.90;;;;;;5074669;28;20175;-47
2023/03/17 00:05:58;;;;;;;1.73;1.60;;;7.80;99.90;;;;;;5074194;28;20171;-48
2023/03/17 00:08:30;;;;;;;3.03;1.70;;;7.80;99.90;;;;;;5074297;28;20183;-47
2023/03/17 00:10:56;;;;;;;4.27;1.80;;;7.70;99.90;;;;;;5074151;28;20199;-49
2023/03/17 00:13:22;;;;;;;2.70;1.70;;;7.70;99.90;;;;;;5074466;28;20190;-49
2023/03/17 00:16:01;;;;;;;2.37;1.80;;;7.70;99.90;;;;;;5074153;28;20167;-49
2023/03/17 00:18:29;;;;;;;2.57;1.83;;;7.70;99.90;;;;;;5074340;28;20187;-48
2023/03/17 00:20:55;;;;;;;5.57;2.30;;;7.60;99.90;;;;;;5074314;28;20225;-47
2023/03/17 00:23:22;;;;;;;3.17;1.73;;;7.60;99.90;;;;;;5072741;28;20214;-48
2023/03/17 00:25:48;;;;;;;1.70;1.50;;;7.60;99.90;;;;;;5073938;28;20168;-48
2023/03/17 00:28:18;;;;;;;2.13;1.57;;;7.50;99.90;;;;;;5073970;28;20257;-48
2023/03/17 00:30:44;;;;;;;2.30;1.50;;;7.50;99.90;;;;;;5074088;28;20251;-47
2023/03/17 00:33:11;;;;;;;7.20;1.90;;;7.50;99.90;;;;;;5074162;28;20175;-47
2023/03/17 00:35:37;;;;;;;2.63;1.60;;;7.50;99.90;;;;;;5073665;28;20168;-46
2023/03/17 00:38:02;;;;;;;3.70;1.60;;;7.50;99.90;;;;;;5073998;28;20187;-48
2023/03/17 00:40:29;;;;;;;2.67;1.70;;;7.60;99.90;;;;;;5073991;28;20201;-48
2023/03/17 00:42:56;;;;;;;3.23;1.53;;;7.60;99.90;;;;;;5074014;28;20206;-48
2023/03/17 00:45:24;;;;;;;1.87;1.30;;;7.60;99.90;;;;;;5074696;28;20194;-45
2023/03/17 00:47:53;;;;;;;2.10;1.80;;;7.50;99.90;;;;;;5073966;28;20172;-48
2023/03/17 00:50:21;;;;;;;2.00;1.60;;;7.50;99.90;;;;;;5073608;28;20738;-48
2023/03/17 00:52:49;;;;;;;3.20;2.00;;;7.50;99.90;;;;;;5073551;28;20677;-46
2023/03/17 00:55:15;;;;;;;2.67;2.00;;;7.50;99.90;;;;;;5073818;28;20592;-45
2023/03/17 00:57:41;;;;;;;3.87;2.00;;;7.40;99.90;;;;;;5073431;28;20202;-47
2023/03/17 01:00:19;;;;;;;3.60;1.90;;;7.40;99.90;;;;;;5073382;28;20222;-48
2023/03/17 01:02:45;;;;;;;4.90;1.80;;;7.40;99.90;;;;;;5073941;28;20217;-48
2023/03/17 01:05:12;;;;;;;1.90;1.70;;;7.40;99.90;;;;;;5073444;28;20176;-48
2023/03/17 01:07:38;;;;;;;4.37;2.13;;;7.40;99.90;;;;;;5072707;28;20179;-46
2023/03/17 01:10:11;;;;;;;4.70;2.27;;;7.50;99.90;;;;;;5073570;28;20662;-50
2023/03/17 01:12:37;;;;;;;3.40;2.10;;;7.50;99.90;;;;;;5073308;28;20184;-48
2023/03/17 01:15:03;;;;;;;2.60;1.87;;;7.50;99.90;;;;;;5073344;28;20541;-47
2023/03/17 01:17:28;;;;;;;5.53;2.07;;;7.50;99.90;;;;;;5073224;28;20667;-47
2023/03/17 01:19:54;;;;;;;4.47;2.37;;;7.50;99.90;;;;;;5073165;28;20170;-48
2023/03/17 01:22:19;;;;;;;4.43;2.07;;;7.50;99.90;;;;;;5073197;28;20176;-48
2023/03/17 01:24:46;;;;;;;2.40;1.83;;;7.50;99.90;;;;;;5073830;28;20262;-48
2023/03/17 01:27:12;;;;;;;3.83;2.20;;;7.50;99.90;;;;;;5073697;28;20688;-46
2023/03/17 01:29:38;;;;;;;6.23;2.27;;;7.40;99.90;;;;;;5073292;28;20209;-47
2023/03/17 01:32:04;;;;;;;4.10;2.30;;;7.40;99.90;;;;;;5073000;28;20199;-48
2023/03/17 01:34:31;;;;;;;4.90;2.20;;;7.40;99.90;;;;;;5073383;28;20204;-48
2023/03/17 01:36:57;;;;;;;3.17;2.40;;;7.40;99.90;;;;;;5073008;28;20249;-47
2023/03/17 01:39:23;;;;;;;2.80;2.00;;;7.30;99.90;;;;;;5073362;28;20252;-47
2023/03/17 01:41:48;;;;;;;3.17;2.07;;;7.20;99.90;;;;;;5072980;28;20227;-48
2023/03/17 01:44:17;;;;;;;3.50;1.80;;;7.20;99.90;;;;;;5073268;28;20264;-47
2023/03/17 01:46:44;;;;;;;6.13;1.90;;;7.20;99.90;;;;;;5072992;28;20178;-47
2023/03/17 01:49:23;;;;;;;2.70;2.10;;;7.20;99.90;;;;;;5073316;28;20183;-46
2023/03/17 01:51:57;;;;;;;4.20;1.67;;;7.20;99.90;;;;;;5073149;28;20203;-46
2023/03/17 01:54:34;;;;;;;4.67;2.37;;;7.10;99.90;;;;;;5073199;28;20186;-48
2023/03/17 01:57:09;;;;;;;2.60;2.10;;;7.20;99.90;;;;;;5073162;28;20168;-47
2023/03/17 01:59:39;;;;;;;3.40;2.03;;;7.20;99.90;;;;;;5073203;28;20197;-47
2023/03/17 02:02:09;;;;;;;2.90;1.93;;;7.10;99.90;;;;;;5072851;28;20766;-46
2023/03/17 02:04:37;;;;;;;2.37;1.70;;;7.10;99.90;;;;;;5073115;28;20179;-47
2023/03/17 02:07:03;;;;;;;3.23;2.00;;;7.10;99.90;;;;;;5073169;28;20694;-48
2023/03/17 02:09:31;;;;;;;2.70;1.80;;;7.00;99.90;;;;;;5072825;28;20172;-47
2023/03/17 02:11:59;;;;;;;5.33;2.00;;;7.00;99.90;;;;;;5072688;28;20196;-48
2023/03/17 02:14:25;;;;;;;2.63;1.90;;;6.80;99.90;;;;;;5073029;28;20184;-49
2023/03/17 02:16:51;;;;;;;3.50;2.10;;;6.80;99.90;;;;;;5072973;28;20172;-48
2023/03/17 02:19:17;;;;;;;6.43;2.37;;;6.70;99.90;;;;;;5073885;28;20210;-47
2023/03/17 02:21:46;;;;;;;4.03;2.30;;;6.60;99.90;;;;;;5076277;28;20205;-46
2023/03/17 02:24:27;;;;;;;3.13;2.10;;;6.60;99.90;;;;;;5076316;28;20246;-48
2023/03/17 02:26:54;;;;;;;3.53;1.80;;;6.50;99.90;;;;;;5076741;28;20175;-47
2023/03/17 02:29:22;;;;;;;2.93;1.90;;;6.60;99.90;;;;;;5076268;28;20175;-46
2023/03/17 02:31:48;;;;;;;2.83;2.27;;;6.60;99.90;;;;;;5076096;28;20710;-47
2023/03/17 02:34:14;;;;;;;3.40;1.90;;;6.60;99.90;;;;;;5076503;28;20205;-46
2023/03/17 02:36:40;;;;;;;4.80;2.13;;;6.60;99.90;;;;;;5076359;28;20195;-49
2023/03/17 02:39:06;;;;;;;3.27;1.90;;;6.60;99.90;;;;;;5076581;28;20209;-48
2023/03/17 02:41:33;;;;;;;3.80;1.90;;;6.60;99.90;;;;;;5076164;28;20751;-47
2023/03/17 02:43:59;;;;;;;5.80;1.93;;;6.60;99.90;;;;;;5076519;28;20258;-48
2023/03/17 02:46:25;;;;;;;3.83;2.30;;;6.60;99.90;;;;;;5076905;28;20179;-48
2023/03/17 02:48:51;;;;;;;2.70;2.00;;;6.60;99.90;;;;;;5076805;28;20316;-48
2023/03/17 02:51:16;;;;;;;3.30;1.70;;;6.60;99.90;;;;;;5076171;28;20621;-47
2023/03/17 02:53:42;;;;;;;3.13;1.60;;;6.60;99.90;;;;;;5076564;28;20176;-48
2023/03/17 02:56:08;;;;;;;5.70;1.90;;;6.70;99.90;;;;;;5076333;28;20631;-49
2023/03/17 02:58:34;;;;;;;4.87;2.20;;;6.80;99.90;;;;;;5075718;28;20207;-46
2023/03/17 03:01:01;;;;;;;3.00;1.93;;;6.80;99.90;;;;;;5075772;28;20198;-47
2023/03/17 03:03:27;;;;;;;5.20;1.90;;;6.80;99.90;;;;;;5075984;28;20189;-48
2023/03/17 03:05:52;;;;;;;4.37;2.13;;;6.80;99.90;;;;;;5075664;28;20194;-46
2023/03/17 03:08:18;;;;;;;3.57;1.73;;;6.80;99.90;;;;;;5075503;28;20575;-47
2023/03/17 03:10:43;;;;;;;4.10;2.23;;;6.80;99.90;;;;;;5075915;28;20651;-47
2023/03/17 03:13:10;;;;;;;2.63;1.87;;;6.80;99.90;;;;;;5075391;28;20175;-47
2023/03/17 03:15:36;;;;;;;6.10;2.10;;;6.80;99.90;;;;;;5074192;28;20183;-47
2023/03/17 03:18:01;;;;;;;3.60;1.93;;;6.80;99.90;;;;;;5075183;28;20547;-47
2023/03/17 03:20:27;;;;;;;2.27;1.57;;;6.80;99.90;;;;;;5075630;28;20235;-45
2023/03/17 03:22:53;;;;;;;3.27;2.10;;;6.70;99.90;;;;;;5075534;28;20646;-47
2023/03/17 03:25:18;;;;;;;2.57;1.60;;;6.70;99.90;;;;;;5075509;28;20609;-48
2023/03/17 03:27:44;;;;;;;2.53;1.43;;;6.70;99.90;;;;;;5075158;28;20178;-46
2023/03/17 03:30:10;;;;;;;5.67;2.20;;;6.70;99.90;;;;;;5074603;28;20269;-47
2023/03/17 03:32:36;;;;;;;4.23;2.13;;;6.70;99.90;;;;;;5074730;28;20202;-47
2023/03/17 03:35:03;;;;;;;3.27;1.87;;;6.70;99.90;;;;;;5075219;28;20182;-47
2023/03/17 03:37:28;;;;;;;6.23;1.90;;;6.70;99.90;;;;;;5074791;28;20222;-47
2023/03/17 03:39:57;;;;;;;2.87;2.10;;;6.60;99.90;;;;;;5075099;28;20206;-49
2023/03/17 03:42:22;;;;;;;2.93;1.93;;;6.70;99.90;;;;;;5075131;28;20183;-47
2023/03/17 03:44:48;;;;;;;2.83;1.70;;;6.60;99.90;;;;;;5074825;28;20532;-47
2023/03/17 03:47:14;;;;;;;4.27;2.00;;;6.60;99.90;;;;;;5075079;28;20230;-48
2023/03/17 03:49:40;;;;;;;2.60;1.87;;;6.60;99.90;;;;;;5074946;28;20182;-48
2023/03/17 03:52:05;;;;;;;5.13;1.57;;;6.60;99.90;;;;;;5074856;28;20202;-46
2023/03/17 03:54:31;;;;;;;1.60;1.50;;;6.60;99.90;;;;;;5074601;28;20202;-47
2023/03/17 03:56:56;;;;;;;5.03;2.23;;;6.60;99.90;;;;;;5075116;28;20179;-48
2023/03/17 03:59:22;;;;;;;4.13;2.53;;;6.60;99.90;;;;;;5074411;28;20210;-46
2023/03/17 04:01:47;;;;;;;2.30;1.37;;;6.60;99.90;;;;;;5074459;28;20195;-47
2023/03/17 04:04:13;;;;;;;5.57;2.13;;;6.60;99.90;;;;;;5074723;28;20211;-46
2023/03/17 04:06:38;;;;;;;4.37;1.97;;;6.60;99.90;;;;;;5074323;28;20241;-49
2023/03/17 04:09:04;;;;;;;7.00;2.30;;;6.60;99.90;;;;;;5075107;28;20193;-47
2023/03/17 04:11:30;;;;;;;2.60;1.60;;;6.60;99.90;;;;;;5074227;28;20195;-48
2023/03/17 04:13:55;;;;;;;2.17;1.80;;;6.50;99.90;;;;;;5074204;28;20184;-47
2023/03/17 04:16:21;;;;;;;4.03;1.90;;;6.50;99.90;;;;;;5074133;28;20228;-48
2023/03/17 04:18:47;;;;;;;3.63;2.00;;;6.50;99.90;;;;;;5074268;28;20214;-48
2023/03/17 04:21:12;;;;;;;7.60;2.07;;;6.50;99.90;;;;;;5073969;28;20202;-47
2023/03/17 04:23:38;;;;;;;7.80;2.00;;;6.50;99.90;;;;;;5074813;28;20175;-49
2023/03/17 04:26:04;;;;;;;7.33;1.80;;;6.50;99.90;;;;;;5074265;28;20211;-48
2023/03/17 04:28:30;;;;;;;3.30;2.20;;;6.50;99.90;;;;;;5074018;28;20173;-49
2023/03/17 04:30:56;;;;;;;5.33;1.90;;;6.50;99.90;;;;;;5073866;28;20210;-48
2023/03/17 04:33:21;;;;;;;3.80;2.10;;;6.50;99.90;;;;;;5073897;28;20213;-49
2023/03/17 04:35:47;;;;;;;9.50;1.90;;;6.50;99.90;;;;;;5074124;28;20206;-48
2023/03/17 04:38:12;;;;;;;2.70;1.97;;;6.50;99.90;;;;;;5074088;28;20198;-48
2023/03/17 04:40:38;;;;;;;5.07;1.90;;;6.50;99.90;;;;;;5073668;28;20195;-48
2023/03/17 04:43:04;;;;;;;4.10;1.93;;;6.50;99.90;;;;;;5073542;28;20171;-48
2023/03/17 04:45:29;;;;;;;5.47;2.07;;;6.50;99.90;;;;;;5073717;28;20178;-48
2023/03/17 04:47:55;;;;;;;5.77;2.07;;;6.60;99.90;;;;;;5072522;28;20650;-48
2023/03/17 04:50:21;;;;;;;3.80;2.10;;;6.50;99.90;;;;;;5072292;28;20229;-48
2023/03/17 04:52:46;;;;;;;5.20;1.93;;;6.50;99.90;;;;;;5073861;28;20643;-48
2023/03/17 04:55:12;;;;;;;2.33;2.03;;;6.50;99.90;;;;;;5074200;28;20529;-48
2023/03/17 04:57:38;;;;;;;5.40;2.27;;;6.50;99.90;;;;;;5073704;28;20328;-48
2023/03/17 05:00:05;;;;;;;6.07;2.23;;;6.50;99.90;;;;;;5074274;28;20217;-47
2023/03/17 05:02:30;;;;;;;6.87;1.90;;;6.40;99.90;;;;;;5073420;28;20179;-47
2023/03/17 05:04:56;;;;;;;4.00;2.00;;;6.40;99.90;;;;;;5073846;28;20186;-48
2023/03/17 05:07:22;;;;;;;7.43;1.80;;;6.40;99.90;;;;;;5073592;28;20269;-47
2023/03/17 05:09:47;;;;;;;2.70;1.83;;;6.40;99.90;;;;;;5073973;28;20179;-46
2023/03/17 05:12:13;;;;;;;3.37;2.13;;;6.40;99.90;;;;;;5073454;28;20202;-47
2023/03/17 05:14:39;;;;;;;3.50;1.73;;;6.40;99.90;;;;;;5073581;28;20190;-49
2023/03/17 05:17:06;;;;;;;1.97;1.57;;;6.40;99.90;;;;;;5073485;28;20186;-48
2023/03/17 05:19:31;;;;;;;6.57;2.03;;;6.40;99.90;;;;;;5073529;28;20233;-49
2023/03/17 05:21:57;;;;;;;5.33;2.20;;;6.40;99.90;;;;;;5073476;28;20207;-49
2023/03/17 05:24:22;;;;;;;4.33;2.00;;;6.40;99.90;;;;;;5073283;28;20179;-50
2023/03/17 05:26:48;;;;;;;8.73;2.30;;;6.40;99.90;;;;;;5074025;28;20189;-49
2023/03/17 05:29:14;;;;;;;7.97;1.90;;;6.40;99.90;;;;;;5073206;28;20214;-50
2023/03/17 05:31:39;;;;;;;2.10;1.60;;;6.40;99.90;;;;;;5073184;28;20205;-49
2023/03/17 05:34:05;;;;;;;3.33;2.03;;;6.40;99.90;;;;;;5073152;28;20201;-49
2023/03/17 05:36:30;;;;;;;3.97;1.80;;;6.40;99.90;;;;;;5073086;28;20266;-50
2023/03/17 05:38:56;;;;;;;2.47;1.93;;;6.40;99.90;;;;;;5073289;28;20306;-49
2023/03/17 05:41:22;;;;;;;3.03;1.93;;;6.40;99.90;;;;;;5073277;28;20204;-49
2023/03/17 05:43:48;;;;;;;4.23;1.80;;;6.40;99.90;;;;;;5073088;28;20206;-50
2023/03/17 05:46:13;;;;;;;9.30;2.20;;;6.40;99.90;;;;;;5073271;28;20189;-49
2023/03/17 05:48:39;;;;;;;3.97;1.90;;;6.40;99.90;;;;;;5071778;28;20211;-49
2023/03/17 05:51:05;;;;;;;2.20;1.90;;;6.40;99.90;;;;;;5072969;28;20210;-48
2023/03/17 05:53:31;;;;;;;3.30;2.13;;;6.30;99.90;;;;;;5072928;28;20182;-49
2023/03/17 05:55:57;;;;;;;5.17;2.00;;;6.30;99.90;;;;;;5077011;28;20208;-49
2023/03/17 05:58:22;;;;;;;8.13;2.20;;;6.30;99.90;;;;;;5076726;28;20199;-48
2023/03/17 06:00:48;;;;;;;4.20;2.30;;;6.30;99.90;;;;;;5076706;28;20227;-49
2023/03/17 06:03:13;;;;;;;8.30;2.50;;;6.30;99.90;;;;;;5076734;28;20236;-50
2023/03/17 06:05:39;;;;;;;6.23;2.47;;;6.30;99.90;;;;;;5076981;28;20233;-49
2023/03/17 06:08:05;;;;;;;2.07;1.67;;;6.20;99.90;;;;;;5076617;28;20189;-48
2023/03/17 06:10:31;;;;;;;4.97;2.30;;;6.20;99.90;;;;;;5076501;28;20214;-50
2023/03/17 06:12:57;;;;;;;3.10;1.90;;;6.20;99.90;;;;;;5076518;28;20187;-49
2023/03/17 06:15:23;;;;;;;4.60;2.40;;;7.20;99.90;;;;;;5077463;28;20187;-50
2023/03/17 06:17:49;;;;;;;2.57;1.87;;;6.30;99.90;;;;;;5076396;28;20233;-49
2023/03/17 06:20:15;;;;;;;9.03;2.40;;;6.30;99.90;;;;;;5076867;28;20655;-48
2023/03/17 06:22:41;;;;;;;4.07;2.43;;;6.30;99.90;;;;;;5076323;28;20236;-50
2023/03/17 06:25:09;;;;;;;7.67;2.40;;;6.30;99.90;;;;;;5076590;28;20262;-49
2023/03/17 06:27:36;;;;;;;3.97;2.07;;;6.30;99.90;;;;;;5076529;28;20187;-49
2023/03/17 06:30:01;;;;;;;3.57;2.00;;;6.30;99.90;;;;;;5076456;28;20168;-49
2023/03/17 06:32:27;;;;;;;3.47;2.50;;;6.40;99.90;;;;;;5076471;28;20190;-50
2023/03/17 06:34:53;;;;;;;2.30;1.70;;;6.40;99.90;;;;;;5076149;28;20172;-51
2023/03/17 06:37:20;;;;;;;5.00;2.20;;;6.40;99.90;;;;;;5076013;28;20559;-49
2023/03/17 06:39:46;;;;;;;5.43;1.83;;;6.40;99.90;;;;;;5076351;28;20186;-50
2023/03/17 06:42:13;;;;;;;4.57;2.47;;;6.50;99.90;;;;;;5076414;28;20211;-50
2023/03/17 06:44:38;;;;;;;4.50;2.17;;;6.50;99.90;;;;;;5076213;28;20277;-49
2023/03/17 06:47:05;;;;;;;3.37;2.30;;;6.50;99.90;;;;;;5076512;28;20210;-51
2023/03/17 06:49:30;;;;;;;4.87;2.40;;;6.60;99.90;;;;;;5076204;28;20644;-49
2023/03/17 06:51:56;;;;;;;4.30;1.90;;;6.60;99.90;;;;;;5075772;28;20320;-50
2023/03/17 06:54:24;;;;;;;4.70;2.37;;;6.70;99.90;;;;;;5076058;28;20182;-51
2023/03/17 06:56:50;;;;;;;8.03;2.27;;;6.70;99.90;;;;;;5076022;28;20190;-50
2023/03/17 06:59:16;;;;;;;3.70;1.80;;;6.80;99.90;;;;;;5075812;28;20201;-50
2023/03/17 07:01:41;;;;;;;8.33;2.60;;;6.80;99.90;;;;;;5075868;28;20203;-49
2023/03/17 07:04:08;;;;;;;2.87;1.97;;;6.90;99.90;;;;;;5075936;28;20185;-51
2023/03/17 07:06:34;;;;;;;4.60;2.20;;;7.00;99.90;;;;;;5075475;28;20655;-49
2023/03/17 07:08:59;;;;;;;6.97;2.20;;;7.10;99.90;;;;;;5075531;28;20209;-50
2023/03/17 07:11:25;;;;;;;6.17;2.50;;;7.20;99.90;;;;;;5075693;28;20215;-49
2023/03/17 07:13:51;;;;;;;6.27;2.10;;;7.30;99.90;;;;;;5075484;28;20175;-48
2023/03/17 07:16:19;;;;;;;3.03;2.23;;;7.40;99.90;;;;;;5075350;28;20180;-50
2023/03/17 07:18:45;;;;;;;4.40;2.40;;;7.60;99.90;;;;;;5075656;28;20210;-49
2023/03/17 07:21:11;;;;;;;3.10;2.20;;;7.70;99.90;;;;;;5075303;28;20267;-50
2023/03/17 07:23:36;;;;;;;5.77;2.33;;;7.80;99.90;;;;;;5075291;28;20180;-47
2023/03/17 07:26:02;;;;;;;2.93;2.10;;;7.90;99.90;;;;;;5075191;28;20182;-48
2023/03/17 07:28:28;;;;;;;3.87;2.43;;;8.00;99.90;;;;;;5075149;28;20179;-48
2023/03/17 07:30:56;;;;;;;6.47;2.27;;;8.10;99.90;;;;;;5075285;28;20285;-49
2023/03/17 07:33:22;;;;;;;5.00;2.63;;;8.20;99.90;;;;;;5074987;28;20211;-48
2023/03/17 07:35:48;;;;;;;8.90;2.80;;;8.20;99.90;;;;;;5075004;28;20180;-48
2023/03/17 07:38:16;;;;;;;6.93;2.80;;;8.40;99.90;;;;;;5074933;28;20207;-48
2023/03/17 07:40:42;;;;;;;3.53;2.20;;;8.50;99.90;;;;;;5074818;28;20658;-47
2023/03/17 07:43:08;;;;;;;7.73;2.50;;;8.50;99.90;;;;;;5074872;28;20182;-49
2023/03/17 07:45:34;;;;;;;4.80;2.20;;;8.60;99.90;;;;;;5074798;28;20191;-48
2023/03/17 07:48:02;;;;;;;5.27;2.43;;;8.70;99.90;;;;;;5075048;28;20539;-48
2023/03/17 07:50:27;;;;;;;5.47;2.70;;;8.70;99.90;;;;;;5074947;28;20203;-50
2023/03/17 07:52:53;;;;;;;6.87;2.20;;;8.70;99.90;;;;;;5075079;28;20552;-48
2023/03/17 07:55:19;;;;;;;4.23;2.40;;;8.70;99.90;;;;;;5074900;28;20187;-48
2023/03/17 07:57:45;;;;;;;4.83;2.20;;;8.80;99.90;;;;;;5074528;28;20199;-49
2023/03/17 08:00:12;;;;;;;4.57;2.40;;;8.80;99.90;;;;;;5074677;28;20270;-48
2023/03/17 08:02:38;;;;;;;8.53;2.20;;;8.90;99.90;;;;;;5074380;28;20644;-48
2023/03/17 08:05:06;;;;;;;4.10;2.40;;;8.90;99.90;;;;;;5074445;28;20176;-47
2023/03/17 08:07:32;;;;;;;3.73;2.30;;;9.00;99.90;;;;;;5074608;28;20192;-50
2023/03/17 08:09:58;;;;;;;10.80;2.93;;;9.10;99.90;;;;;;5074386;28;20183;-49
2023/03/17 08:12:24;;;;;;;5.20;2.53;;;9.20;99.90;;;;;;5074204;28;20650;-48
2023/03/17 08:14:50;;;;;;;2.77;2.10;;;9.20;99.90;;;;;;5074243;28;20214;-50
2023/03/17 08:17:16;;;;;;;6.43;2.33;;;9.30;99.90;;;;;;5073885;28;20192;-49
2023/03/17 08:19:42;;;;;;;6.17;2.50;;;9.40;99.90;;;;;;5074434;28;20548;-48
2023/03/17 08:22:08;;;;;;;8.17;2.07;;;9.50;99.90;;;;;;5074308;28;20197;-48
2023/03/17 08:24:35;;;;;;;7.90;2.40;;;9.60;99.90;;;;;;5074273;28;20203;-49
2023/03/17 08:27:01;;;;;;;10.73;2.80;;;9.70;99.90;;;;;;5074276;28;20231;-48
2023/03/17 08:29:27;;;;;;;7.80;2.90;;;9.80;99.90;;;;;;5073986;28;20659;-48
2023/03/17 08:31:53;;;;;;;4.17;2.47;;;9.90;99.90;;;;;;5073909;28;20225;-48
2023/03/17 08:34:19;;;;;;;4.00;2.07;;;10.00;99.90;;;;;;5074399;28;20223;-49
2023/03/17 08:36:44;;;;;;;6.60;2.00;;;10.00;99.90;;;;;;5073697;28;20193;-47
2023/03/17 08:39:10;;;;;;;7.60;2.20;;;10.10;99.90;;;;;;5074002;28;20205;-49
2023/03/17 08:41:36;;;;;;;6.97;2.30;;;10.30;99.90;;;;;;5073644;28;20205;-48
2023/03/17 08:44:02;;;;;;;3.13;2.10;;;10.30;99.90;;;;;;5073689;28;20215;-49
2023/03/17 08:46:30;;;;;;;5.23;2.30;;;10.40;99.90;;;;;;5073606;28;20182;-49
2023/03/17 08:48:56;;;;;;;8.67;2.33;;;10.50;99.90;;;;;;5073875;28;20718;-48
2023/03/17 08:51:25;;;;;;;6.40;2.13;;;10.60;99.90;;;;;;5073533;28;20205;-49
2023/03/17 08:53:51;;;;;;;3.87;2.07;;;10.60;99.90;;;;;;5073881;28;20190;-49
2023/03/17 08:56:17;;;;;;;4.23;2.10;;;10.70;99.90;;;;;;5073515;28;20205;-50
2023/03/17 08:58:43;;;;;;;4.60;2.50;;;10.80;99.90;;;;;;5073727;28;20662;-47
2023/03/17 09:01:12;;;;;;;4.77;2.43;;;10.90;99.90;;;;;;5073700;28;20249;-47
2023/03/17 09:03:39;;;;;;;2.63;1.70;;;11.00;99.90;;;;;;5073452;28;20183;-47
2023/03/17 09:06:06;;;;;;;4.43;2.63;;;11.20;99.90;;;;;;5073743;28;20258;-49
2023/03/17 09:08:38;;;;;;;10.17;2.30;;;11.30;99.90;;;;;;5073357;28;20183;-50
2023/03/17 09:11:06;;;;;;;7.70;2.20;;;11.40;99.90;;;;;;5073550;28;20207;-49
2023/03/17 09:13:33;;;;;;;4.33;2.00;;;11.60;99.90;;;;;;5073323;28;20648;-49
2023/03/17 09:16:00;;;;;;;4.13;2.20;;;11.70;99.90;;;;;;5073382;28;20191;-49
2023/03/17 09:18:26;;;;;;;3.63;2.27;;;11.80;99.90;;;;;;5073451;28;20282;-48
2023/03/17 09:20:51;;;;;;;5.87;2.20;;;11.90;99.90;;;;;;5073403;28;20277;-49
2023/03/17 09:23:17;;;;;;;6.53;2.40;;;12.00;99.90;;;;;;5073253;28;20167;-49
2023/03/17 09:25:44;;;;;;;5.50;2.30;;;12.10;99.90;;;;;;5073231;28;20685;-48
2023/03/17 09:28:12;;;;;;;2.47;1.73;;;12.20;99.90;;;;;;5073229;28;20202;-47
2023/03/17 09:30:41;;;;;;;8.63;2.60;;;12.20;99.90;;;;;;5076680;28;20210;-48
2023/03/17 09:33:08;;;;;;;5.03;2.30;;;12.20;99.90;;;;;;5077585;28;20194;-47
2023/03/17 09:35:33;;;;;;;3.73;2.27;;;12.30;99.90;;;;;;5077381;28;20176;-49
2023/03/17 09:37:59;;;;;;;7.37;2.37;;;12.40;99.90;;;;;;5077417;28;20590;-49
2023/03/17 09:40:34;;;;;;;9.67;2.73;;;12.40;99.90;;;;;;5077822;28;20203;-49
2023/03/17 09:43:21;;;;;;;5.03;2.30;;;12.50;99.90;;;;;;5077417;28;20178;-47
2023/03/17 09:45:47;;;;;;;3.33;2.23;;;12.60;99.90;;;;;;5077085;28;20164;-50
2023/03/17 09:48:27;;;;;;;8.40;2.40;;;12.60;99.90;;;;;;5077055;28;20183;-49
2023/03/17 09:51:11;;;;;;;5.30;1.93;;;12.70;99.90;;;;;;5077349;28;20244;-48
2023/03/17 09:53:54;;;;;;;2.67;2.00;;;12.70;99.90;;;;;;5077410;28;20175;-47
2023/03/17 09:56:22;;;;;;;6.73;2.20;;;12.80;99.90;;;;;;5076968;28;20163;-47
2023/03/17 09:58:58;;;;;;;5.50;2.23;;;12.90;99.90;;;;;;5077126;28;20191;-48
2023/03/17 10:01:25;;;;;;;10.20;2.20;;;13.00;99.90;;;;;;5077324;28;20191;-47
2023/03/17 10:03:51;;;;;;;4.73;2.10;;;13.00;99.90;;;;;;5077050;28;20180;-46
2023/03/17 10:06:37;;;;;;;9.27;2.60;;;13.00;99.90;;;;;;5077030;28;20540;-48
2023/03/17 10:09:28;;;;;;;8.50;2.50;;;13.10;99.90;;;;;;5077046;28;20204;-47
2023/03/17 10:12:08;;;;;;;9.17;2.33;;;13.10;99.90;;;;;;5076779;28;20207;-47
2023/03/17 10:14:43;;;;;;;9.17;3.03;;;13.20;99.90;;;;;;5076899;28;20213;-47
2023/03/17 10:17:20;;;;;;;6.27;2.37;;;13.30;99.90;;;;;;5076819;28;20167;-46
2023/03/17 10:20:07;;;;;;;8.97;2.70;;;13.50;99.90;;;;;;5076771;28;20181;-46
2023/03/17 10:22:48;;;;;;;11.30;2.40;;;13.80;99.90;;;;;;5076752;28;20180;-47
2023/03/17 10:25:15;;;;;;;3.90;1.87;;;13.90;99.90;;;;;;5076713;28;20160;-47
2023/03/17 10:27:43;;;;;;;8.60;2.40;;;14.20;99.90;;;;;;5077127;28;20175;-47
2023/03/17 10:30:16;;;;;;;4.70;2.10;;;14.30;99.90;;;;;;5076209;28;20176;-48
2023/03/17 10:32:42;;;;;;;7.47;2.43;;;14.60;99.90;;;;;;5076551;28;20174;-47
2023/03/17 10:35:10;;;;;;;8.53;2.23;;;14.70;99.90;;;;;;5076207;28;20182;-48
2023/03/17 10:37:36;;;;;;;8.37;1.80;;;14.90;99.90;;;;;;5076005;28;20224;-47
2023/03/17 10:40:08;;;;;;;6.43;1.87;;;15.10;99.90;;;;;;5075931;28;20639;-48
2023/03/17 10:42:50;;;;;;;5.73;2.13;;;15.10;99.90;;;;;;5074908;28;20533;-48
2023/03/17 10:45:31;;;;;;;5.93;2.23;;;15.30;99.90;;;;;;5076357;28;20163;-48
2023/03/17 10:47:58;;;;;;;7.80;2.00;;;15.60;99.90;;;;;;5076051;28;20176;-47
2023/03/17 10:50:32;;;;;;;6.27;2.13;;;15.70;99.90;;;;;;5075841;28;20196;-47
2023/03/17 10:53:02;;;;;;;4.13;1.80;;;15.90;99.90;;;;;;5075956;28;20206;-49
2023/03/17 10:55:36;;;;;;;4.63;1.60;;;16.00;99.90;;;;;;5075861;28;20263;-47
2023/03/17 10:58:06;;;;;;;9.13;2.20;;;16.10;99.90;;;;;;5075692;28;20720;-46
2023/03/17 11:00:35;;;;;;;4.20;1.60;;;16.20;99.90;;;;;;5076022;28;20196;-46
2023/03/17 11:03:13;;;;;;;6.57;1.80;;;16.40;99.90;;;;;;5075839;28;20171;-48
2023/03/17 11:05:39;;;;;;;3.63;2.00;;;16.60;99.90;;;;;;5075758;28;20175;-47
2023/03/17 11:08:16;;;;;;;8.23;2.10;;;16.80;99.90;;;;;;5075711;28;20219;-46
2023/03/17 11:10:43;;;;;;;6.40;2.17;;;17.00;99.90;;;;;;5075465;28;20203;-47
2023/03/17 11:13:09;;;;;;;9.30;2.00;;;17.20;99.90;;;;;;5075795;28;20172;-45
2023/03/17 11:15:42;;;;;;;3.83;1.73;;;17.40;99.90;;;;;;5075752;28;20205;-48
2023/03/17 11:18:13;;;;;;;5.03;1.83;;;17.60;99.90;;;;;;5075619;28;20195;-48
2023/03/17 11:20:47;;;;;;;3.33;1.83;;;17.70;99.90;;;;;;5075553;28;20198;-47
2023/03/17 11:23:21;;;;;;;5.57;1.60;;;17.80;99.90;;;;;;5075613;28;20531;-47
2023/03/17 11:25:52;;;;;;;3.77;1.77;;;18.00;99.90;;;;;;5075510;28;20164;-47
2023/03/17 11:28:25;;;;;;;3.00;1.60;;;18.10;99.90;;;;;;5075533;28;20176;-46
2023/03/17 11:31:01;;;;;;;8.40;1.53;;;18.20;99.90;;;;;;5075419;28;20211;-46
2023/03/17 11:33:46;;;;;;;4.03;1.70;;;18.30;99.90;;;;;;5088504;22;20308;-53
2023/03/17 11:36:39;;;;;;;6.57;1.73;;;18.30;99.90;;;;;;5075064;28;20627;-52
2023/03/17 11:39:46;;;;;;;4.87;2.17;;;18.30;99.90;;;;;;5075290;28;20210;-54
2023/03/17 11:42:17;;;;;;;4.50;1.70;;;18.30;99.90;;;;;;5014359;28;20332;-50
2023/03/17 11:44:55;;;;;;;2.87;1.60;;;18.30;99.90;;;;;;5049916;28;20210;-52
2023/03/17 11:47:31;;;;;;;4.80;1.80;;;18.30;99.90;;;;;;5054851;28;20213;-52
2023/03/17 11:50:22;;;;;;;3.63;1.80;;;18.30;99.90;;;;;;5055094;28;20251;-51
2023/03/17 11:53:05;;;;;;;6.10;1.50;;;18.30;99.90;;;;;;5054193;28;20188;-54
2023/03/17 11:55:53;;;;;;;2.50;1.77;;;18.30;99.90;;;;;;5054749;28;20212;-52
2023/03/17 11:58:59;;;;;;;6.57;1.90;;;18.30;99.90;;;;;;5054530;28;20223;-49
2023/03/17 12:01:31;;;;;;;3.23;1.60;;;18.20;99.90;;;;;;5054821;28;20280;-50
2023/03/17 12:04:15;;;;;;;5.00;1.90;;;18.20;99.90;;;;;;5054806;28;20168;-51
2023/03/17 12:06:51;;;;;;;4.23;1.80;;;18.20;99.90;;;;;;5054591;28;20175;-52
2023/03/17 12:09:31;;;;;;;6.03;2.07;;;18.30;99.90;;;;;;5054720;28;20178;-52
2023/03/17 12:12:00;;;;;;;5.13;2.03;;;18.40;99.90;;;;;;5054569;28;20207;-52
2023/03/17 12:14:45;;;;;;;6.07;2.00;;;18.40;99.90;;;;;;5054648;28;20548;-54
2023/03/17 12:17:18;;;;;;;2.30;1.43;;;18.50;99.90;;;;;;5054600;28;20183;-51
2023/03/17 12:19:57;;;;;;;3.43;1.60;;;18.40;99.90;;;;;;5054562;28;20564;-51
2023/03/17 12:22:33;;;;;;;4.97;1.70;;;18.50;99.90;;;;;;5054420;28;20186;-51
2023/03/17 12:25:28;;;;;;;5.30;1.40;;;18.40;99.90;;;;;;5054465;28;20173;-53
2023/03/17 12:28:00;;;;;;;11.03;1.63;;;18.40;99.90;;;;;;5054089;28;20187;-54
2023/03/17 12:30:31;;;;;;;4.27;1.73;;;18.40;99.90;;;;;;5054457;28;20326;-51
2023/03/17 12:33:15;;;;;;;5.00;1.97;;;18.40;99.90;;;;;;5054332;28;20200;-52
2023/03/17 12:35:42;;;;;;;8.27;1.63;;;18.40;99.90;;;;;;5054245;28;20199;-53
2023/03/17 12:38:13;;;;;;;3.77;1.53;;;18.40;99.90;;;;;;5053880;28;20204;-52
2023/03/17 12:40:52;;;;;;;3.53;1.63;;;18.40;99.90;;;;;;5054077;28;20319;-54
2023/03/17 12:44:00;;;;;;;5.37;1.47;;;18.40;99.90;;;;;;5053877;28;20251;-51
2023/03/17 12:46:32;;;;;;;3.80;1.90;;;18.40;99.90;;;;;;5048244;28;20188;-52
2023/03/17 12:49:14;;;;;;;4.13;1.63;;;18.50;99.90;;;;;;5053764;28;20183;-52
2023/03/17 12:52:01;;;;;;;5.70;1.80;;;18.50;99.90;;;;;;5053755;28;20294;-52
2023/03/17 12:54:38;;;;;;;3.33;1.67;;;18.60;99.90;;;;;;5054414;28;20600;-51
2023/03/17 12:57:13;;;;;;;5.40;1.70;;;18.70;99.90;;;;;;5053903;28;20180;-52
2023/03/17 12:59:42;;;;;;;3.23;1.93;;;18.70;99.90;;;;;;5053701;28;20200;-52
2023/03/17 13:02:29;;;;;;;3.00;1.73;;;18.80;99.90;;;;;;5052527;28;20278;-51